sensor_id;sensor_type;location;lat;lon;timestamp;P1;durP1;ratioP1;P2;durP2;ratioP2
66264;SDS011;53055;44.648;21.148;2022-10-29T00:01:27;48.60;;;29.95;;
66264;SDS011;53055;44.648;21.148;2022-10-29T00:03:53;47.50;;;27.73;;
66264;SDS011;53055;44.648;21.148;2022-10-29T00:06:19;160.00;;;33.17;;
66264;SDS011;53055;44.648;21.148;2022-10-29T00:08:45;87.05;;;29.92;;
66264;SDS011;53055;44.648;21.148;2022-10-29T00:11:12;159.20;;;29.20;;
66264;SDS011;53055;44.648;21.148;2022-10-29T00:13:39;104.57;;;30.23;;
66264;SDS011;53055;44.648;21.148;2022-10-29T00:16:06;51.92;;;24.88;;
66264;SDS011;53055;44.648;21.148;2022-10-29T00:18:32;60.00;;;26.13;;
66264;SDS011;53055;44.648;21.148;2022-10-29T00:20:59;114.55;;;26.23;;
66264;SDS011;53055;44.648;21.148;2022-10-29T00:23:25;35.45;;;24.48;;
66264;SDS011;53055;44.648;21.148;2022-10-29T00:25:54;35.75;;;24.80;;
66264;SDS011;53055;44.648;21.148;2022-10-29T00:28:20;39.50;;;26.50;;
66264;SDS011;53055;44.648;21.148;2022-10-29T00:30:46;144.75;;;31.65;;
66264;SDS011;53055;44.648;21.148;2022-10-29T00:33:12;201.30;;;40.08;;
66264;SDS011;53055;44.648;21.148;2022-10-29T00:35:40;57.10;;;32.05;;
66264;SDS011;53055;44.648;21.148;2022-10-29T00:38:06;105.63;;;37.47;;
66264;SDS011;53055;44.648;21.148;2022-10-29T00:40:36;174.75;;;40.15;;
66264;SDS011;53055;44.648;21.148;2022-10-29T00:43:12;69.88;;;38.17;;
66264;SDS011;53055;44.648;21.148;2022-10-29T00:45:39;253.70;;;37.65;;
66264;SDS011;53055;44.648;21.148;2022-10-29T00:48:06;85.32;;;31.38;;
66264;SDS011;53055;44.648;21.148;2022-10-29T00:50:32;118.63;;;37.90;;
66264;SDS011;53055;44.648;21.148;2022-10-29T00:52:59;95.35;;;39.42;;
66264;SDS011;53055;44.648;21.148;2022-10-29T00:55:26;81.47;;;41.72;;
66264;SDS011;53055;44.648;21.148;2022-10-29T00:57:52;62.83;;;37.75;;
66264;SDS011;53055;44.648;21.148;2022-10-29T01:00:19;61.75;;;36.63;;
66264;SDS011;53055;44.648;21.148;2022-10-29T01:02:45;74.72;;;44.60;;
66264;SDS011;53055;44.648;21.148;2022-10-29T01:05:15;277.10;;;56.13;;
66264;SDS011;53055;44.648;21.148;2022-10-29T01:07:43;77.72;;;44.53;;
66264;SDS011;53055;44.648;21.148;2022-10-29T01:10:09;125.05;;;40.75;;
66264;SDS011;53055;44.648;21.148;2022-10-29T01:22:58;50.58;;;33.20;;
66264;SDS011;53055;44.648;21.148;2022-10-29T01:30:36;62.90;;;35.80;;
66264;SDS011;53055;44.648;21.148;2022-10-29T01:40:57;66.38;;;36.88;;
66264;SDS011;53055;44.648;21.148;2022-10-29T01:43:26;58.75;;;37.45;;
66264;SDS011;53055;44.648;21.148;2022-10-29T01:45:59;68.97;;;38.35;;
66264;SDS011;53055;44.648;21.148;2022-10-29T01:48:30;87.65;;;37.75;;
66264;SDS011;53055;44.648;21.148;2022-10-29T01:50:57;77.40;;;37.90;;
66264;SDS011;53055;44.648;21.148;2022-10-29T01:53:26;70.50;;;37.47;;
66264;SDS011;53055;44.648;21.148;2022-10-29T01:55:52;81.00;;;36.03;;
66264;SDS011;53055;44.648;21.148;2022-10-29T01:58:18;92.18;;;33.83;;
66264;SDS011;53055;44.648;21.148;2022-10-29T02:00:49;88.35;;;28.20;;
66264;SDS011;53055;44.648;21.148;2022-10-29T02:10:46;48.83;;;22.83;;
66264;SDS011;53055;44.648;21.148;2022-10-29T02:13:15;59.58;;;22.17;;
66264;SDS011;53055;44.648;21.148;2022-10-29T02:15:45;53.50;;;23.40;;
66264;SDS011;53055;44.648;21.148;2022-10-29T02:18:13;101.22;;;24.27;;
66264;SDS011;53055;44.648;21.148;2022-10-29T02:20:43;52.33;;;22.83;;
66264;SDS011;53055;44.648;21.148;2022-10-29T02:23:09;88.63;;;24.08;;
66264;SDS011;53055;44.648;21.148;2022-10-29T02:25:35;52.97;;;23.65;;
66264;SDS011;53055;44.648;21.148;2022-10-29T02:28:01;59.95;;;24.40;;
66264;SDS011;53055;44.648;21.148;2022-10-29T02:30:27;44.70;;;22.67;;
66264;SDS011;53055;44.648;21.148;2022-10-29T02:32:53;33.80;;;23.02;;
66264;SDS011;53055;44.648;21.148;2022-10-29T02:35:19;66.32;;;23.95;;
66264;SDS011;53055;44.648;21.148;2022-10-29T02:37:45;66.93;;;24.15;;
66264;SDS011;53055;44.648;21.148;2022-10-29T02:40:12;56.72;;;23.95;;
66264;SDS011;53055;44.648;21.148;2022-10-29T02:42:38;75.22;;;23.75;;
66264;SDS011;53055;44.648;21.148;2022-10-29T02:45:04;181.93;;;28.75;;
66264;SDS011;53055;44.648;21.148;2022-10-29T02:47:30;82.72;;;24.70;;
66264;SDS011;53055;44.648;21.148;2022-10-29T02:49:56;86.18;;;25.10;;
66264;SDS011;53055;44.648;21.148;2022-10-29T02:52:22;63.08;;;26.73;;
66264;SDS011;53055;44.648;21.148;2022-10-29T02:54:48;100.65;;;27.90;;
66264;SDS011;53055;44.648;21.148;2022-10-29T02:57:14;71.78;;;24.65;;
66264;SDS011;53055;44.648;21.148;2022-10-29T02:59:40;87.72;;;24.95;;
66264;SDS011;53055;44.648;21.148;2022-10-29T03:02:06;49.45;;;23.92;;
66264;SDS011;53055;44.648;21.148;2022-10-29T03:04:32;45.95;;;23.42;;
66264;SDS011;53055;44.648;21.148;2022-10-29T03:06:58;38.33;;;23.73;;
66264;SDS011;53055;44.648;21.148;2022-10-29T03:09:24;71.78;;;25.58;;
66264;SDS011;53055;44.648;21.148;2022-10-29T03:11:50;42.08;;;25.23;;
66264;SDS011;53055;44.648;21.148;2022-10-29T03:14:16;44.72;;;24.00;;
66264;SDS011;53055;44.648;21.148;2022-10-29T03:16:42;85.32;;;25.92;;
66264;SDS011;53055;44.648;21.148;2022-10-29T03:19:08;59.05;;;24.45;;
66264;SDS011;53055;44.648;21.148;2022-10-29T03:21:35;47.83;;;23.73;;
66264;SDS011;53055;44.648;21.148;2022-10-29T03:24:01;56.35;;;24.80;;
66264;SDS011;53055;44.648;21.148;2022-10-29T03:26:28;65.15;;;23.88;;
66264;SDS011;53055;44.648;21.148;2022-10-29T03:28:54;61.05;;;24.15;;
66264;SDS011;53055;44.648;21.148;2022-10-29T03:31:20;57.83;;;24.65;;
66264;SDS011;53055;44.648;21.148;2022-10-29T03:33:46;65.25;;;26.13;;
66264;SDS011;53055;44.648;21.148;2022-10-29T03:36:12;48.22;;;22.98;;
66264;SDS011;53055;44.648;21.148;2022-10-29T03:38:38;59.72;;;23.75;;
66264;SDS011;53055;44.648;21.148;2022-10-29T03:41:04;46.33;;;22.77;;
66264;SDS011;53055;44.648;21.148;2022-10-29T03:43:34;78.72;;;23.83;;
66264;SDS011;53055;44.648;21.148;2022-10-29T03:46:00;77.53;;;23.85;;
66264;SDS011;53055;44.648;21.148;2022-10-29T03:48:27;73.72;;;24.83;;
66264;SDS011;53055;44.648;21.148;2022-10-29T03:50:53;64.78;;;24.23;;
66264;SDS011;53055;44.648;21.148;2022-10-29T03:53:20;80.47;;;24.42;;
66264;SDS011;53055;44.648;21.148;2022-10-29T03:55:46;51.25;;;25.35;;
66264;SDS011;53055;44.648;21.148;2022-10-29T03:58:12;60.53;;;26.25;;
66264;SDS011;53055;44.648;21.148;2022-10-29T04:00:38;71.93;;;23.48;;
66264;SDS011;53055;44.648;21.148;2022-10-29T04:03:04;99.97;;;22.88;;
66264;SDS011;53055;44.648;21.148;2022-10-29T04:05:30;50.13;;;21.33;;
66264;SDS011;53055;44.648;21.148;2022-10-29T04:07:56;68.57;;;21.92;;
66264;SDS011;53055;44.648;21.148;2022-10-29T04:10:22;41.47;;;21.15;;
66264;SDS011;53055;44.648;21.148;2022-10-29T04:12:49;61.50;;;19.80;;
66264;SDS011;53055;44.648;21.148;2022-10-29T04:15:15;61.15;;;21.40;;
66264;SDS011;53055;44.648;21.148;2022-10-29T04:17:41;41.35;;;20.20;;
66264;SDS011;53055;44.648;21.148;2022-10-29T04:20:08;62.58;;;21.73;;
66264;SDS011;53055;44.648;21.148;2022-10-29T04:22:34;53.80;;;20.27;;
66264;SDS011;53055;44.648;21.148;2022-10-29T04:25:00;50.03;;;21.08;;
66264;SDS011;53055;44.648;21.148;2022-10-29T04:27:26;33.20;;;20.38;;
66264;SDS011;53055;44.648;21.148;2022-10-29T04:29:52;39.47;;;19.98;;
66264;SDS011;53055;44.648;21.148;2022-10-29T04:32:18;28.40;;;20.10;;
66264;SDS011;53055;44.648;21.148;2022-10-29T04:34:44;37.92;;;19.65;;
66264;SDS011;53055;44.648;21.148;2022-10-29T04:37:10;49.75;;;20.63;;
66264;SDS011;53055;44.648;21.148;2022-10-29T04:39:36;61.67;;;21.38;;
66264;SDS011;53055;44.648;21.148;2022-10-29T04:42:02;61.05;;;21.27;;
66264;SDS011;53055;44.648;21.148;2022-10-29T04:44:28;58.38;;;22.70;;
66264;SDS011;53055;44.648;21.148;2022-10-29T04:46:54;76.13;;;21.95;;
66264;SDS011;53055;44.648;21.148;2022-10-29T04:49:20;42.75;;;22.25;;
66264;SDS011;53055;44.648;21.148;2022-10-29T04:51:46;51.75;;;22.70;;
66264;SDS011;53055;44.648;21.148;2022-10-29T04:54:12;68.07;;;22.80;;
66264;SDS011;53055;44.648;21.148;2022-10-29T04:56:39;63.17;;;22.67;;
66264;SDS011;53055;44.648;21.148;2022-10-29T04:59:05;42.65;;;22.70;;
66264;SDS011;53055;44.648;21.148;2022-10-29T05:01:31;46.33;;;21.38;;
66264;SDS011;53055;44.648;21.148;2022-10-29T05:03:57;47.58;;;23.80;;
66264;SDS011;53055;44.648;21.148;2022-10-29T05:06:24;28.63;;;20.63;;
66264;SDS011;53055;44.648;21.148;2022-10-29T05:08:49;69.35;;;23.70;;
66264;SDS011;53055;44.648;21.148;2022-10-29T05:11:16;59.17;;;23.20;;
66264;SDS011;53055;44.648;21.148;2022-10-29T05:13:42;22.10;;;19.63;;
66264;SDS011;53055;44.648;21.148;2022-10-29T05:16:09;23.17;;;19.98;;
66264;SDS011;53055;44.648;21.148;2022-10-29T05:18:35;22.58;;;19.95;;
66264;SDS011;53055;44.648;21.148;2022-10-29T05:21:02;25.20;;;20.75;;
66264;SDS011;53055;44.648;21.148;2022-10-29T05:23:28;23.35;;;20.85;;
66264;SDS011;53055;44.648;21.148;2022-10-29T05:25:54;33.60;;;23.08;;
66264;SDS011;53055;44.648;21.148;2022-10-29T05:28:21;29.92;;;21.48;;
66264;SDS011;53055;44.648;21.148;2022-10-29T05:30:48;39.35;;;21.88;;
66264;SDS011;53055;44.648;21.148;2022-10-29T05:33:15;39.28;;;22.08;;
66264;SDS011;53055;44.648;21.148;2022-10-29T05:35:41;24.77;;;22.15;;
66264;SDS011;53055;44.648;21.148;2022-10-29T05:38:08;24.98;;;22.00;;
66264;SDS011;53055;44.648;21.148;2022-10-29T05:40:34;45.65;;;23.60;;
66264;SDS011;53055;44.648;21.148;2022-10-29T05:43:00;62.22;;;25.45;;
66264;SDS011;53055;44.648;21.148;2022-10-29T05:45:26;66.85;;;25.80;;
66264;SDS011;53055;44.648;21.148;2022-10-29T05:47:56;80.70;;;25.70;;
66264;SDS011;53055;44.648;21.148;2022-10-29T05:50:22;29.88;;;24.85;;
66264;SDS011;53055;44.648;21.148;2022-10-29T05:52:57;53.25;;;26.52;;
66264;SDS011;53055;44.648;21.148;2022-10-29T05:55:24;47.30;;;26.08;;
66264;SDS011;53055;44.648;21.148;2022-10-29T05:57:54;40.63;;;25.70;;
66264;SDS011;53055;44.648;21.148;2022-10-29T06:00:20;29.77;;;23.95;;
66264;SDS011;53055;44.648;21.148;2022-10-29T06:02:46;31.80;;;24.88;;
66264;SDS011;53055;44.648;21.148;2022-10-29T06:05:12;103.72;;;28.55;;
66264;SDS011;53055;44.648;21.148;2022-10-29T06:07:39;78.35;;;27.50;;
66264;SDS011;53055;44.648;21.148;2022-10-29T06:10:05;89.85;;;28.27;;
66264;SDS011;53055;44.648;21.148;2022-10-29T06:12:31;65.40;;;27.95;;
66264;SDS011;53055;44.648;21.148;2022-10-29T06:14:58;35.10;;;25.92;;
66264;SDS011;53055;44.648;21.148;2022-10-29T06:17:24;48.50;;;28.92;;
66264;SDS011;53055;44.648;21.148;2022-10-29T06:19:50;63.00;;;28.73;;
66264;SDS011;53055;44.648;21.148;2022-10-29T06:22:16;54.72;;;26.98;;
66264;SDS011;53055;44.648;21.148;2022-10-29T06:24:42;41.17;;;27.15;;
66264;SDS011;53055;44.648;21.148;2022-10-29T06:27:08;54.17;;;29.10;;
66264;SDS011;53055;44.648;21.148;2022-10-29T06:29:34;44.90;;;27.20;;
66264;SDS011;53055;44.648;21.148;2022-10-29T06:32:00;42.53;;;28.73;;
66264;SDS011;53055;44.648;21.148;2022-10-29T06:34:26;42.22;;;28.33;;
66264;SDS011;53055;44.648;21.148;2022-10-29T06:36:52;36.60;;;28.10;;
66264;SDS011;53055;44.648;21.148;2022-10-29T06:39:18;43.90;;;28.75;;
66264;SDS011;53055;44.648;21.148;2022-10-29T06:41:44;37.90;;;29.48;;
66264;SDS011;53055;44.648;21.148;2022-10-29T06:44:10;33.55;;;29.17;;
66264;SDS011;53055;44.648;21.148;2022-10-29T06:46:36;41.72;;;31.67;;
66264;SDS011;53055;44.648;21.148;2022-10-29T06:49:03;35.60;;;28.02;;
66264;SDS011;53055;44.648;21.148;2022-10-29T06:51:29;43.35;;;29.02;;
66264;SDS011;53055;44.648;21.148;2022-10-29T06:53:55;33.72;;;29.33;;
66264;SDS011;53055;44.648;21.148;2022-10-29T06:56:21;37.75;;;29.90;;
66264;SDS011;53055;44.648;21.148;2022-10-29T06:58:47;43.88;;;30.95;;
66264;SDS011;53055;44.648;21.148;2022-10-29T07:01:13;51.15;;;40.40;;
66264;SDS011;53055;44.648;21.148;2022-10-29T07:03:39;54.03;;;47.70;;
66264;SDS011;53055;44.648;21.148;2022-10-29T07:06:05;44.45;;;32.40;;
66264;SDS011;53055;44.648;21.148;2022-10-29T07:08:31;36.70;;;30.58;;
66264;SDS011;53055;44.648;21.148;2022-10-29T07:10:57;36.38;;;30.73;;
66264;SDS011;53055;44.648;21.148;2022-10-29T07:13:23;37.13;;;29.77;;
66264;SDS011;53055;44.648;21.148;2022-10-29T07:15:49;59.20;;;32.63;;
66264;SDS011;53055;44.648;21.148;2022-10-29T07:18:15;56.00;;;32.38;;
66264;SDS011;53055;44.648;21.148;2022-10-29T07:20:42;65.05;;;33.60;;
66264;SDS011;53055;44.648;21.148;2022-10-29T07:23:09;54.35;;;34.88;;
66264;SDS011;53055;44.648;21.148;2022-10-29T07:25:35;56.80;;;34.22;;
66264;SDS011;53055;44.648;21.148;2022-10-29T07:28:05;65.47;;;36.35;;
66264;SDS011;53055;44.648;21.148;2022-10-29T07:30:32;53.28;;;35.60;;
66264;SDS011;53055;44.648;21.148;2022-10-29T07:32:58;63.20;;;37.40;;
66264;SDS011;53055;44.648;21.148;2022-10-29T07:35:24;81.07;;;39.88;;
66264;SDS011;53055;44.648;21.148;2022-10-29T07:37:50;51.55;;;40.10;;
66264;SDS011;53055;44.648;21.148;2022-10-29T07:40:16;59.25;;;37.65;;
66264;SDS011;53055;44.648;21.148;2022-10-29T07:42:42;56.90;;;37.90;;
66264;SDS011;53055;44.648;21.148;2022-10-29T07:45:08;49.30;;;37.65;;
66264;SDS011;53055;44.648;21.148;2022-10-29T07:47:34;54.67;;;36.65;;
66264;SDS011;53055;44.648;21.148;2022-10-29T07:50:00;67.03;;;38.30;;
66264;SDS011;53055;44.648;21.148;2022-10-29T07:52:26;53.22;;;36.67;;
66264;SDS011;53055;44.648;21.148;2022-10-29T07:54:52;63.17;;;36.47;;
66264;SDS011;53055;44.648;21.148;2022-10-29T07:57:18;51.75;;;36.53;;
66264;SDS011;53055;44.648;21.148;2022-10-29T07:59:46;61.47;;;36.30;;
66264;SDS011;53055;44.648;21.148;2022-10-29T08:02:14;66.03;;;38.45;;
66264;SDS011;53055;44.648;21.148;2022-10-29T08:04:40;80.72;;;40.60;;
66264;SDS011;53055;44.648;21.148;2022-10-29T08:07:06;93.60;;;42.03;;
66264;SDS011;53055;44.648;21.148;2022-10-29T08:09:32;56.78;;;36.63;;
66264;SDS011;53055;44.648;21.148;2022-10-29T08:11:58;51.00;;;37.03;;
66264;SDS011;53055;44.648;21.148;2022-10-29T08:14:24;62.03;;;36.50;;
66264;SDS011;53055;44.648;21.148;2022-10-29T08:16:51;69.40;;;38.50;;
66264;SDS011;53055;44.648;21.148;2022-10-29T08:19:18;52.38;;;35.03;;
66264;SDS011;53055;44.648;21.148;2022-10-29T08:21:44;57.25;;;37.22;;
66264;SDS011;53055;44.648;21.148;2022-10-29T08:24:11;50.28;;;35.85;;
66264;SDS011;53055;44.648;21.148;2022-10-29T08:26:37;59.33;;;37.17;;
66264;SDS011;53055;44.648;21.148;2022-10-29T08:29:03;51.42;;;34.22;;
66264;SDS011;53055;44.648;21.148;2022-10-29T08:31:29;51.72;;;35.17;;
66264;SDS011;53055;44.648;21.148;2022-10-29T08:33:55;53.85;;;36.70;;
66264;SDS011;53055;44.648;21.148;2022-10-29T08:36:21;51.47;;;36.70;;
66264;SDS011;53055;44.648;21.148;2022-10-29T08:38:47;53.25;;;36.15;;
66264;SDS011;53055;44.648;21.148;2022-10-29T08:46:27;54.58;;;36.95;;
66264;SDS011;53055;44.648;21.148;2022-10-29T08:48:57;48.60;;;35.83;;
66264;SDS011;53055;44.648;21.148;2022-10-29T08:53:52;50.00;;;36.85;;
66264;SDS011;53055;44.648;21.148;2022-10-29T08:56:28;50.50;;;35.90;;
66264;SDS011;53055;44.648;21.148;2022-10-29T09:01:39;50.97;;;36.65;;
66264;SDS011;53055;44.648;21.148;2022-10-29T09:04:20;49.75;;;35.25;;
66264;SDS011;53055;44.648;21.148;2022-10-29T09:19:31;48.55;;;35.78;;
66264;SDS011;53055;44.648;21.148;2022-10-29T09:24:39;51.03;;;36.13;;
66264;SDS011;53055;44.648;21.148;2022-10-29T09:27:20;47.25;;;34.72;;
66264;SDS011;53055;44.648;21.148;2022-10-29T09:29:54;52.92;;;36.25;;
66264;SDS011;53055;44.648;21.148;2022-10-29T09:32:36;48.28;;;33.83;;
66264;SDS011;53055;44.648;21.148;2022-10-29T09:35:05;47.92;;;35.00;;
66264;SDS011;53055;44.648;21.148;2022-10-29T09:40:05;50.67;;;35.40;;
66264;SDS011;53055;44.648;21.148;2022-10-29T09:42:38;45.53;;;33.88;;
66264;SDS011;53055;44.648;21.148;2022-10-29T09:45:06;48.25;;;35.55;;
66264;SDS011;53055;44.648;21.148;2022-10-29T09:52:38;45.55;;;34.15;;
66264;SDS011;53055;44.648;21.148;2022-10-29T09:55:05;50.30;;;37.85;;
66264;SDS011;53055;44.648;21.148;2022-10-29T09:57:33;51.40;;;36.67;;
66264;SDS011;53055;44.648;21.148;2022-10-29T10:00:01;49.85;;;37.40;;
66264;SDS011;53055;44.648;21.148;2022-10-29T10:08:02;44.15;;;34.97;;
66264;SDS011;53055;44.648;21.148;2022-10-29T10:10:30;42.63;;;33.17;;
66264;SDS011;53055;44.648;21.148;2022-10-29T10:13:00;42.58;;;32.72;;
66264;SDS011;53055;44.648;21.148;2022-10-29T10:15:31;54.95;;;37.83;;
66264;SDS011;53055;44.648;21.148;2022-10-29T10:22:53;52.85;;;37.17;;
66264;SDS011;53055;44.648;21.148;2022-10-29T10:25:38;51.42;;;37.00;;
66264;SDS011;53055;44.648;21.148;2022-10-29T10:28:14;47.05;;;36.33;;
66264;SDS011;53055;44.648;21.148;2022-10-29T10:30:42;49.35;;;36.92;;
66264;SDS011;53055;44.648;21.148;2022-10-29T10:35:46;50.38;;;38.28;;
66264;SDS011;53055;44.648;21.148;2022-10-29T10:38:12;54.15;;;39.72;;
66264;SDS011;53055;44.648;21.148;2022-10-29T10:40:38;53.47;;;38.10;;
66264;SDS011;53055;44.648;21.148;2022-10-29T10:43:12;53.75;;;38.42;;
66264;SDS011;53055;44.648;21.148;2022-10-29T10:45:42;50.42;;;36.60;;
66264;SDS011;53055;44.648;21.148;2022-10-29T10:48:11;46.90;;;35.47;;
66264;SDS011;53055;44.648;21.148;2022-10-29T10:50:39;52.88;;;37.03;;
66264;SDS011;53055;44.648;21.148;2022-10-29T10:53:15;45.95;;;34.95;;
66264;SDS011;53055;44.648;21.148;2022-10-29T10:55:45;52.25;;;38.67;;
66264;SDS011;53055;44.648;21.148;2022-10-29T11:00:42;50.22;;;37.92;;
66264;SDS011;53055;44.648;21.148;2022-10-29T11:03:29;44.72;;;34.80;;
66264;SDS011;53055;44.648;21.148;2022-10-29T11:08:27;55.75;;;39.33;;
66264;SDS011;53055;44.648;21.148;2022-10-29T11:11:06;50.90;;;36.67;;
66264;SDS011;53055;44.648;21.148;2022-10-29T11:13:33;52.40;;;39.70;;
66264;SDS011;53055;44.648;21.148;2022-10-29T11:16:01;53.92;;;38.25;;
66264;SDS011;53055;44.648;21.148;2022-10-29T11:18:31;49.83;;;38.90;;
66264;SDS011;53055;44.648;21.148;2022-10-29T11:21:01;53.58;;;39.67;;
66264;SDS011;53055;44.648;21.148;2022-10-29T11:23:42;52.50;;;38.15;;
66264;SDS011;53055;44.648;21.148;2022-10-29T11:26:15;47.78;;;36.72;;
66264;SDS011;53055;44.648;21.148;2022-10-29T11:33:56;58.35;;;41.20;;
66264;SDS011;53055;44.648;21.148;2022-10-29T11:36:23;60.60;;;46.90;;
66264;SDS011;53055;44.648;21.148;2022-10-29T11:38:52;53.80;;;40.70;;
66264;SDS011;53055;44.648;21.148;2022-10-29T11:43:48;57.30;;;42.45;;
66264;SDS011;53055;44.648;21.148;2022-10-29T11:46:31;49.13;;;37.85;;
66264;SDS011;53055;44.648;21.148;2022-10-29T11:49:04;49.92;;;39.22;;
66264;SDS011;53055;44.648;21.148;2022-10-29T11:51:42;49.58;;;38.38;;
66264;SDS011;53055;44.648;21.148;2022-10-29T12:01:41;43.17;;;34.97;;
66264;SDS011;53055;44.648;21.148;2022-10-29T12:04:26;45.55;;;36.45;;
66264;SDS011;53055;44.648;21.148;2022-10-29T12:11:51;49.88;;;40.78;;
66264;SDS011;53055;44.648;21.148;2022-10-29T12:14:34;50.55;;;40.85;;
66264;SDS011;53055;44.648;21.148;2022-10-29T12:19:49;51.20;;;40.13;;
66264;SDS011;53055;44.648;21.148;2022-10-29T12:34:46;41.80;;;34.47;;
66264;SDS011;53055;44.648;21.148;2022-10-29T12:39:51;45.25;;;38.05;;
66264;SDS011;53055;44.648;21.148;2022-10-29T12:42:26;49.25;;;40.72;;
66264;SDS011;53055;44.648;21.148;2022-10-29T12:45:10;40.28;;;34.88;;
66264;SDS011;53055;44.648;21.148;2022-10-29T12:55:30;41.28;;;35.83;;
66264;SDS011;53055;44.648;21.148;2022-10-29T12:57:58;43.40;;;37.17;;
66264;SDS011;53055;44.648;21.148;2022-10-29T13:02:54;33.75;;;29.10;;
66264;SDS011;53055;44.648;21.148;2022-10-29T13:15:20;32.55;;;25.25;;
66264;SDS011;53055;44.648;21.148;2022-10-29T13:17:46;26.48;;;21.25;;
66264;SDS011;53055;44.648;21.148;2022-10-29T13:20:48;119.13;;;77.97;;
66264;SDS011;53055;44.648;21.148;2022-10-29T13:23:29;60.10;;;48.05;;
66264;SDS011;53055;44.648;21.148;2022-10-29T13:25:53;33.78;;;29.52;;
66264;SDS011;53055;44.648;21.148;2022-10-29T13:30:46;28.65;;;25.35;;
66264;SDS011;53055;44.648;21.148;2022-10-29T13:35:50;25.00;;;20.90;;
66264;SDS011;53055;44.648;21.148;2022-10-29T13:38:17;24.45;;;21.85;;
66264;SDS011;53055;44.648;21.148;2022-10-29T13:43:18;19.40;;;17.40;;
66264;SDS011;53055;44.648;21.148;2022-10-29T13:45:47;19.73;;;17.63;;
66264;SDS011;53055;44.648;21.148;2022-10-29T13:48:21;19.90;;;17.40;;
66264;SDS011;53055;44.648;21.148;2022-10-29T13:53:13;20.38;;;16.70;;
66264;SDS011;53055;44.648;21.148;2022-10-29T13:55:41;20.05;;;17.95;;
66264;SDS011;53055;44.648;21.148;2022-10-29T14:00:53;24.17;;;21.77;;
66264;SDS011;53055;44.648;21.148;2022-10-29T14:03:25;21.25;;;18.95;;
66264;SDS011;53055;44.648;21.148;2022-10-29T14:06:01;21.63;;;19.35;;
66264;SDS011;53055;44.648;21.148;2022-10-29T14:10:57;25.35;;;22.40;;
66264;SDS011;53055;44.648;21.148;2022-10-29T14:16:08;28.70;;;23.42;;
66264;SDS011;53055;44.648;21.148;2022-10-29T14:21:01;27.92;;;24.90;;
66264;SDS011;53055;44.648;21.148;2022-10-29T14:23:28;51.42;;;46.50;;
66264;SDS011;53055;44.648;21.148;2022-10-29T14:25:55;44.13;;;37.55;;
66264;SDS011;53055;44.648;21.148;2022-10-29T14:30:57;37.30;;;30.55;;
66264;SDS011;53055;44.648;21.148;2022-10-29T14:33:24;25.67;;;21.23;;
66264;SDS011;53055;44.648;21.148;2022-10-29T14:35:52;37.33;;;30.13;;
66264;SDS011;53055;44.648;21.148;2022-10-29T14:38:19;28.88;;;23.48;;
66264;SDS011;53055;44.648;21.148;2022-10-29T14:40:46;24.00;;;19.23;;
66264;SDS011;53055;44.648;21.148;2022-10-29T14:43:22;34.13;;;27.85;;
66264;SDS011;53055;44.648;21.148;2022-10-29T14:45:49;38.03;;;32.55;;
66264;SDS011;53055;44.648;21.148;2022-10-29T14:48:15;30.40;;;25.42;;
66264;SDS011;53055;44.648;21.148;2022-10-29T14:50:49;44.85;;;34.95;;
66264;SDS011;53055;44.648;21.148;2022-10-29T14:53:28;33.60;;;25.42;;
66264;SDS011;53055;44.648;21.148;2022-10-29T14:55:54;26.90;;;21.50;;
66264;SDS011;53055;44.648;21.148;2022-10-29T14:58:27;25.98;;;21.23;;
66264;SDS011;53055;44.648;21.148;2022-10-29T15:00:55;25.40;;;21.80;;
66264;SDS011;53055;44.648;21.148;2022-10-29T15:03:23;26.65;;;23.75;;
66264;SDS011;53055;44.648;21.148;2022-10-29T15:05:50;28.40;;;20.55;;
66264;SDS011;53055;44.648;21.148;2022-10-29T15:08:21;26.67;;;22.33;;
66264;SDS011;53055;44.648;21.148;2022-10-29T15:10:54;25.58;;;22.13;;
66264;SDS011;53055;44.648;21.148;2022-10-29T15:15:58;27.98;;;22.73;;
66264;SDS011;53055;44.648;21.148;2022-10-29T15:18:25;29.52;;;26.27;;
66264;SDS011;53055;44.648;21.148;2022-10-29T15:20:52;31.75;;;27.30;;
66264;SDS011;53055;44.648;21.148;2022-10-29T15:26:01;34.22;;;29.70;;
66264;SDS011;53055;44.648;21.148;2022-10-29T15:28:28;36.08;;;30.23;;
66264;SDS011;53055;44.648;21.148;2022-10-29T15:30:55;39.78;;;33.67;;
66264;SDS011;53055;44.648;21.148;2022-10-29T15:33:25;37.78;;;32.22;;
66264;SDS011;53055;44.648;21.148;2022-10-29T15:35:53;40.47;;;33.05;;
66264;SDS011;53055;44.648;21.148;2022-10-29T15:41:14;42.58;;;35.97;;
66264;SDS011;53055;44.648;21.148;2022-10-29T15:43:48;41.33;;;34.78;;
66264;SDS011;53055;44.648;21.148;2022-10-29T15:46:20;98.80;;;88.07;;
66264;SDS011;53055;44.648;21.148;2022-10-29T15:48:47;303.98;;;236.50;;
66264;SDS011;53055;44.648;21.148;2022-10-29T15:51:13;161.25;;;119.28;;
66264;SDS011;53055;44.648;21.148;2022-10-29T15:53:39;131.95;;;97.32;;
66264;SDS011;53055;44.648;21.148;2022-10-29T15:56:05;85.97;;;65.18;;
66264;SDS011;53055;44.648;21.148;2022-10-29T15:58:35;94.55;;;73.03;;
66264;SDS011;53055;44.648;21.148;2022-10-29T16:01:01;69.35;;;53.55;;
66264;SDS011;53055;44.648;21.148;2022-10-29T16:03:28;54.75;;;43.47;;
66264;SDS011;53055;44.648;21.148;2022-10-29T16:06:00;53.92;;;41.33;;
66264;SDS011;53055;44.648;21.148;2022-10-29T16:10:54;55.95;;;47.08;;
66264;SDS011;53055;44.648;21.148;2022-10-29T16:13:20;51.10;;;42.10;;
66264;SDS011;53055;44.648;21.148;2022-10-29T16:15:47;52.08;;;42.92;;
66264;SDS011;53055;44.648;21.148;2022-10-29T16:18:13;50.35;;;41.33;;
66264;SDS011;53055;44.648;21.148;2022-10-29T16:20:39;52.70;;;46.90;;
66264;SDS011;53055;44.648;21.148;2022-10-29T16:23:07;42.78;;;35.78;;
66264;SDS011;53055;44.648;21.148;2022-10-29T16:25:34;50.78;;;41.20;;
66264;SDS011;53055;44.648;21.148;2022-10-29T16:28:00;46.45;;;37.67;;
66264;SDS011;53055;44.648;21.148;2022-10-29T16:30:26;54.10;;;40.42;;
66264;SDS011;53055;44.648;21.148;2022-10-29T16:32:52;60.33;;;47.75;;
66264;SDS011;53055;44.648;21.148;2022-10-29T16:37:44;54.53;;;43.85;;
66264;SDS011;53055;44.648;21.148;2022-10-29T16:40:11;61.92;;;49.22;;
66264;SDS011;53055;44.648;21.148;2022-10-29T16:42:37;45.92;;;32.47;;
66264;SDS011;53055;44.648;21.148;2022-10-29T16:45:03;45.50;;;36.85;;
66264;SDS011;53055;44.648;21.148;2022-10-29T16:47:30;127.55;;;114.30;;
66264;SDS011;53055;44.648;21.148;2022-10-29T16:49:56;66.35;;;51.83;;
66264;SDS011;53055;44.648;21.148;2022-10-29T16:52:22;80.75;;;63.17;;
66264;SDS011;53055;44.648;21.148;2022-10-29T16:54:48;66.28;;;53.38;;
66264;SDS011;53055;44.648;21.148;2022-10-29T16:57:14;70.32;;;57.35;;
66264;SDS011;53055;44.648;21.148;2022-10-29T16:59:40;71.07;;;53.75;;
66264;SDS011;53055;44.648;21.148;2022-10-29T17:02:06;65.93;;;51.15;;
66264;SDS011;53055;44.648;21.148;2022-10-29T17:04:32;81.95;;;69.68;;
66264;SDS011;53055;44.648;21.148;2022-10-29T17:06:58;78.35;;;68.22;;
66264;SDS011;53055;44.648;21.148;2022-10-29T17:09:25;146.10;;;130.43;;